Time;durP1;ratioP1;P1;durP2;ratioP2;P2;SDS_P1;SDS_P2;PMS_P1;PMS_P2;Temp;Humidity;BMP_temperature;BMP_pressure;BME280_temperature;BME280_humidity;BME280_pressure;Samples;Min_cycle;Max_cycle;Signal;HPM_P1;HPM_P2
2022/01/07 00:00:17;;;;;;;42.08;18.67;;;;;;;;;;6246239;23;20003;-89
2022/01/07 00:02:47;;;;;;;40.50;19.25;;;;;;;;;;6219233;22;20007;-89
2022/01/07 00:05:12;;;;;;;47.42;18.70;;;;;;;;;;6246752;23;19992;-89
2022/01/07 00:07:38;;;;;;;45.40;19.45;;;;;;;;;;6246691;23;20007;-89
2022/01/07 00:10:04;;;;;;;46.85;21.48;;;;;;;;;;6245854;22;20044;-89
2022/01/07 00:12:29;;;;;;;42.10;19.55;;;;;;;;;;6219685;23;20003;-89
2022/01/07 00:14:54;;;;;;;45.83;19.42;;;;;;;;;;6246315;22;20006;-89
2022/01/07 00:17:19;;;;;;;45.55;19.63;;;;;;;;;;6243442;23;20012;-89
2022/01/07 00:19:45;;;;;;;45.97;18.60;;;;;;;;;;6246643;22;20054;-89
2022/01/07 00:22:10;;;;;;;43.67;19.38;;;;;;;;;;6215688;23;20250;-89
2022/01/07 00:24:36;;;;;;;42.70;19.27;;;;;;;;;;6215999;23;20000;-89
2022/01/07 00:27:01;;;;;;;45.40;19.33;;;;;;;;;;6243183;23;20227;-89
2022/01/07 00:29:26;;;;;;;44.60;19.33;;;;;;;;;;6217686;23;19996;-89
2022/01/07 00:31:51;;;;;;;51.75;21.60;;;;;;;;;;6245100;23;20031;-89
2022/01/07 00:34:16;;;;;;;47.60;20.73;;;;;;;;;;6243132;22;19996;-89
2022/01/07 00:36:42;;;;;;;44.80;20.75;;;;;;;;;;6243066;23;20291;-90
2022/01/07 00:39:07;;;;;;;43.77;21.20;;;;;;;;;;6242820;22;20000;-90
2022/01/07 00:41:32;;;;;;;43.45;22.92;;;;;;;;;;6243153;23;20219;-89
2022/01/07 00:43:57;;;;;;;52.13;23.42;;;;;;;;;;6243541;22;20000;-90
2022/01/07 00:46:23;;;;;;;46.28;22.90;;;;;;;;;;6216429;23;20003;-90
2022/01/07 00:48:48;;;;;;;46.03;22.33;;;;;;;;;;6217574;23;20054;-90
2022/01/07 00:51:13;;;;;;;54.87;24.27;;;;;;;;;;6216316;23;20004;-90
2022/01/07 00:53:38;;;;;;;53.25;24.17;;;;;;;;;;6218821;23;20234;-88
2022/01/07 00:56:04;;;;;;;49.97;23.25;;;;;;;;;;6246907;23;19996;-89
2022/01/07 00:58:29;;;;;;;54.58;25.70;;;;;;;;;;6244511;22;20361;-89
2022/01/07 01:00:54;;;;;;;55.88;25.27;;;;;;;;;;6216349;23;19996;-90
2022/01/07 01:03:19;;;;;;;49.22;25.88;;;;;;;;;;6216077;23;20143;-89
2022/01/07 01:05:45;;;;;;;46.97;24.30;;;;;;;;;;6242808;23;20118;-89
2022/01/07 01:08:11;;;;;;;53.72;26.38;;;;;;;;;;6242484;22;20003;-89
2022/01/07 01:10:36;;;;;;;57.42;24.15;;;;;;;;;;6242336;23;20012;-88
2022/01/07 01:13:01;;;;;;;50.35;25.25;;;;;;;;;;6215372;22;20042;-89
2022/01/07 01:15:27;;;;;;;50.30;26.05;;;;;;;;;;6215851;23;20606;-89
2022/01/07 01:17:56;;;;;;;53.90;26.70;;;;;;;;;;6212051;23;20032;-89
2022/01/07 01:20:21;;;;;;;57.95;26.02;;;;;;;;;;6212143;23;20079;-89
2022/01/07 01:22:47;;;;;;;49.38;25.73;;;;;;;;;;6212331;23;20024;-90
2022/01/07 01:25:13;;;;;;;51.03;25.98;;;;;;;;;;6185687;23;20005;-89
2022/01/07 01:27:39;;;;;;;49.25;26.38;;;;;;;;;;6212190;23;20003;-89
2022/01/07 01:30:06;;;;;;;52.88;27.02;;;;;;;;;;6186181;23;20809;-89
2022/01/07 01:32:31;;;;;;;50.55;27.50;;;;;;;;;;6187196;23;20032;-89
2022/01/07 01:34:57;;;;;;;56.55;29.15;;;;;;;;;;6213251;23;20020;-90
2022/01/07 01:37:22;;;;;;;52.17;28.48;;;;;;;;;;6212555;23;20009;-89
2022/01/07 01:39:47;;;;;;;57.40;30.08;;;;;;;;;;6214357;23;20410;-89
2022/01/07 01:42:13;;;;;;;53.83;28.17;;;;;;;;;;6185524;23;20051;-89
2022/01/07 01:44:38;;;;;;;61.72;27.85;;;;;;;;;;6185198;23;20059;-89
2022/01/07 01:47:03;;;;;;;60.25;28.98;;;;;;;;;;6212573;23;20031;-89
2022/01/07 01:49:29;;;;;;;58.58;29.15;;;;;;;;;;6185155;23;20079;-89
2022/01/07 01:51:54;;;;;;;55.90;29.80;;;;;;;;;;6212069;23;20032;-89
2022/01/07 01:54:19;;;;;;;58.80;28.75;;;;;;;;;;6211859;23;20005;-89
2022/01/07 01:56:44;;;;;;;57.13;29.42;;;;;;;;;;6211826;23;20425;-89
2022/01/07 02:02:12;;;;;;;62.03;28.65;;;;;;;;;;6212301;23;20035;-89
2022/01/07 02:04:39;;;;;;;50.97;27.92;;;;;;;;;;6211935;23;20418;-88
2022/01/07 02:07:05;;;;;;;56.25;28.52;;;;;;;;;;6185169;23;20004;-88
2022/01/07 02:09:35;;;;;;;54.80;28.58;;;;;;;;;;6184809;23;20016;-89
2022/01/07 02:12:01;;;;;;;55.35;27.65;;;;;;;;;;6185402;23;20020;-89
2022/01/07 02:14:26;;;;;;;63.95;29.95;;;;;;;;;;6185182;23;20075;-89
2022/01/07 02:16:51;;;;;;;58.30;28.77;;;;;;;;;;6211814;23;20015;-89
2022/01/07 02:19:16;;;;;;;56.38;28.27;;;;;;;;;;6212799;23;20240;-89
2022/01/07 02:21:41;;;;;;;61.05;29.92;;;;;;;;;;6213610;23;20001;-89
2022/01/07 02:24:07;;;;;;;51.83;28.52;;;;;;;;;;6214516;23;19997;-90
2022/01/07 02:26:33;;;;;;;51.78;26.90;;;;;;;;;;6213912;23;20020;-89
2022/01/07 02:28:59;;;;;;;56.42;29.42;;;;;;;;;;6213847;23;20023;-89
2022/01/07 02:31:24;;;;;;;53.72;28.35;;;;;;;;;;6214153;23;20288;-89
2022/01/07 02:33:49;;;;;;;52.33;28.60;;;;;;;;;;6213842;23;20008;-89
2022/01/07 02:36:14;;;;;;;56.22;28.88;;;;;;;;;;6186868;23;20095;-90
2022/01/07 02:38:40;;;;;;;59.67;28.93;;;;;;;;;;6186818;23;20005;-89
2022/01/07 02:41:05;;;;;;;57.03;27.83;;;;;;;;;;6213900;23;20219;-89
2022/01/07 02:43:30;;;;;;;48.78;28.25;;;;;;;;;;6189267;23;20004;-88
2022/01/07 02:45:56;;;;;;;55.92;29.70;;;;;;;;;;6214544;23;20076;-89
2022/01/07 02:48:21;;;;;;;56.15;30.20;;;;;;;;;;6213469;23;20008;-89
2022/01/07 02:50:46;;;;;;;52.22;28.95;;;;;;;;;;6187044;23;20426;-89
2022/01/07 02:53:11;;;;;;;61.25;29.60;;;;;;;;;;6213386;23;20417;-89
2022/01/07 02:55:38;;;;;;;54.22;29.50;;;;;;;;;;6186997;23;20007;-89
2022/01/07 02:58:04;;;;;;;57.97;29.92;;;;;;;;;;6213247;23;20425;-89
2022/01/07 03:00:29;;;;;;;56.10;31.42;;;;;;;;;;6213334;23;20013;-89
2022/01/07 03:02:55;;;;;;;62.75;32.22;;;;;;;;;;6187514;23;19996;-89
2022/01/07 03:05:21;;;;;;;57.30;30.38;;;;;;;;;;6186862;23;20528;-89
2022/01/07 03:07:49;;;;;;;62.33;33.08;;;;;;;;;;6213953;23;20797;-89
2022/01/07 03:10:19;;;;;;;57.05;32.58;;;;;;;;;;6213478;23;20017;-89
2022/01/07 03:12:44;;;;;;;62.28;32.30;;;;;;;;;;6186410;23;20012;-89
2022/01/07 03:15:13;;;;;;;70.32;33.85;;;;;;;;;;6213326;23;20088;-89
2022/01/07 03:17:40;;;;;;;66.10;32.45;;;;;;;;;;6213024;23;20016;-88
2022/01/07 03:20:06;;;;;;;65.60;32.40;;;;;;;;;;6213365;23;20479;-89
2022/01/07 03:22:31;;;;;;;67.40;34.10;;;;;;;;;;6213033;23;20414;-89
2022/01/07 03:24:56;;;;;;;70.47;33.30;;;;;;;;;;6186640;23;20011;-89
2022/01/07 03:27:21;;;;;;;68.73;32.60;;;;;;;;;;6186559;23;20000;-89
2022/01/07 03:29:47;;;;;;;65.90;33.27;;;;;;;;;;6186100;23;20293;-89
2022/01/07 03:32:12;;;;;;;74.65;35.95;;;;;;;;;;6212973;23;20270;-88
2022/01/07 03:34:37;;;;;;;64.03;35.13;;;;;;;;;;6213314;23;20371;-89
2022/01/07 03:37:03;;;;;;;72.40;39.20;;;;;;;;;;6213439;23;20252;-89
2022/01/07 03:39:28;;;;;;;64.15;36.05;;;;;;;;;;6186582;23;20024;-89
2022/01/07 03:41:53;;;;;;;66.40;33.78;;;;;;;;;;6186346;23;20084;-89
2022/01/07 03:44:18;;;;;;;62.87;34.97;;;;;;;;;;6186337;23;20028;-89
2022/01/07 03:46:43;;;;;;;73.50;37.17;;;;;;;;;;6186740;23;20224;-89
2022/01/07 03:49:09;;;;;;;70.22;35.92;;;;;;;;;;6186463;23;20000;-89
2022/01/07 03:51:34;;;;;;;66.70;36.17;;;;;;;;;;6186364;23;20012;-89
2022/01/07 03:53:59;;;;;;;66.28;36.13;;;;;;;;;;6212981;23;20289;-89
2022/01/07 03:56:24;;;;;;;72.38;39.05;;;;;;;;;;6186020;23;20044;-89
2022/01/07 03:58:50;;;;;;;65.63;34.63;;;;;;;;;;6186241;23;20008;-89
2022/01/07 04:01:15;;;;;;;79.77;38.30;;;;;;;;;;6185835;23;20464;-89
2022/01/07 04:03:40;;;;;;;68.95;36.17;;;;;;;;;;6185808;23;20242;-89
2022/01/07 04:06:05;;;;;;;69.60;37.05;;;;;;;;;;6186260;23;20005;-89
2022/01/07 04:08:31;;;;;;;61.72;35.08;;;;;;;;;;6212940;23;20007;-89
2022/01/07 04:10:56;;;;;;;59.05;34.83;;;;;;;;;;6212997;23;20082;-89
2022/01/07 04:13:21;;;;;;;66.05;36.15;;;;;;;;;;6185987;23;20483;-89
2022/01/07 04:15:46;;;;;;;59.47;32.05;;;;;;;;;;6212861;23;19997;-89
2022/01/07 04:18:12;;;;;;;65.38;33.03;;;;;;;;;;6186824;23;20329;-89
2022/01/07 04:20:37;;;;;;;61.22;33.83;;;;;;;;;;6186749;23;20001;-89
2022/01/07 04:23:03;;;;;;;55.05;31.58;;;;;;;;;;6213432;23;20011;-89
2022/01/07 04:25:28;;;;;;;61.67;33.83;;;;;;;;;;6185986;23;19996;-90
2022/01/07 04:27:58;;;;;;;71.30;34.75;;;;;;;;;;6212745;23;20163;-90
2022/01/07 04:30:24;;;;;;;60.47;34.65;;;;;;;;;;6186102;23;20024;-90
2022/01/07 04:32:49;;;;;;;74.00;37.17;;;;;;;;;;6186753;23;20763;-90
2022/01/07 04:35:16;;;;;;;61.33;33.90;;;;;;;;;;6185875;23;20452;-89
2022/01/07 04:37:41;;;;;;;64.95;35.75;;;;;;;;;;6185916;23;20035;-90
2022/01/07 04:40:08;;;;;;;69.63;36.60;;;;;;;;;;6185547;23;20010;-90
2022/01/07 04:42:33;;;;;;;57.42;33.03;;;;;;;;;;6185794;23;20000;-90
2022/01/07 04:44:58;;;;;;;58.33;32.83;;;;;;;;;;6185775;23;20012;-90
2022/01/07 04:47:24;;;;;;;63.70;33.95;;;;;;;;;;6212359;23;20012;-89
2022/01/07 04:49:50;;;;;;;59.38;32.47;;;;;;;;;;6185931;23;20000;-89
2022/01/07 04:52:17;;;;;;;55.67;32.80;;;;;;;;;;6186073;23;20004;-89
2022/01/07 04:54:42;;;;;;;54.63;32.95;;;;;;;;;;6186831;23;20440;-89
2022/01/07 04:57:07;;;;;;;57.63;33.53;;;;;;;;;;6212393;23;20066;-90
2022/01/07 04:59:32;;;;;;;58.07;35.20;;;;;;;;;;6186250;23;20340;-90
2022/01/07 05:01:57;;;;;;;63.35;33.13;;;;;;;;;;6186685;23;20235;-90
2022/01/07 05:04:23;;;;;;;63.30;37.07;;;;;;;;;;6213698;23;19992;-90
2022/01/07 09:03:03;;;;;;;47.13;31.17;;;;;;;;;;6211837;22;20404;-90
2022/01/07 09:08:06;;;;;;;58.85;35.13;;;;;;;;;;6227964;22;20027;-90
2022/01/07 09:10:32;;;;;;;60.53;36.00;;;;;;;;;;6246555;23;19996;-90
2022/01/07 09:15:32;;;;;;;53.97;35.22;;;;;;;;;;6203063;22;20032;-90
2022/01/07 09:18:00;;;;;;;57.00;34.97;;;;;;;;;;6189762;23;20016;-91
2022/01/07 09:20:25;;;;;;;61.22;34.70;;;;;;;;;;6190224;23;20368;-90
2022/01/07 09:22:50;;;;;;;53.70;33.33;;;;;;;;;;6216399;23;19989;-90
2022/01/07 09:25:16;;;;;;;68.65;35.97;;;;;;;;;;6189924;23;20000;-90
2022/01/07 09:27:41;;;;;;;52.63;33.40;;;;;;;;;;6189613;23;20007;-90
2022/01/07 09:30:07;;;;;;;58.67;34.13;;;;;;;;;;6189889;23;20004;-90
2022/01/07 09:32:33;;;;;;;56.50;33.30;;;;;;;;;;6189453;23;20003;-90
2022/01/07 09:34:58;;;;;;;55.00;33.65;;;;;;;;;;6189828;23;19997;-91
2022/01/07 09:37:23;;;;;;;62.10;33.47;;;;;;;;;;6189691;23;20012;-90
2022/01/07 09:39:48;;;;;;;59.72;33.80;;;;;;;;;;6216116;23;19999;-90
2022/01/07 09:42:13;;;;;;;55.15;32.03;;;;;;;;;;6189765;23;20028;-90
2022/01/07 09:44:42;;;;;;;53.67;31.45;;;;;;;;;;6216366;23;20019;-90
2022/01/07 09:47:11;;;;;;;51.00;30.70;;;;;;;;;;6197322;23;20001;-91
2022/01/07 09:49:36;;;;;;;59.45;32.65;;;;;;;;;;6189571;23;20035;-90
2022/01/07 09:52:02;;;;;;;49.13;30.33;;;;;;;;;;6189914;23;20406;-90
2022/01/07 09:54:27;;;;;;;58.70;30.30;;;;;;;;;;6189635;23;20756;-90
2022/01/07 14:42:07;;;;;;;39.50;16.60;;;;;;;;;;6183159;23;20381;-90
2022/01/07 14:44:32;;;;;;;42.20;16.67;;;;;;;;;;6217174;23;20009;-90
2022/01/07 14:46:57;;;;;;;37.17;16.87;;;;;;;;;;6217939;23;19992;-90
2022/01/07 14:49:22;;;;;;;41.75;16.17;;;;;;;;;;6191252;23;20271;-90
2022/01/07 14:51:48;;;;;;;48.47;17.83;;;;;;;;;;6190918;23;19992;-90
2022/01/07 14:54:13;;;;;;;53.65;18.23;;;;;;;;;;6190818;23;20256;-90
2022/01/07 14:56:38;;;;;;;40.30;17.17;;;;;;;;;;6218109;23;20013;-91
2022/01/07 14:59:03;;;;;;;35.10;17.60;;;;;;;;;;6217497;23;20259;-90
2022/01/07 15:01:29;;;;;;;44.08;17.02;;;;;;;;;;6217465;23;20004;-90
2022/01/07 15:03:54;;;;;;;45.25;17.95;;;;;;;;;;6190980;23;20024;-90
2022/01/07 15:06:19;;;;;;;35.00;17.80;;;;;;;;;;6190753;23;20444;-90
2022/01/07 15:08:44;;;;;;;46.10;17.65;;;;;;;;;;6190977;23;20227;-90
2022/01/07 15:11:11;;;;;;;50.03;18.53;;;;;;;;;;6190915;23;20088;-90
2022/01/07 15:13:36;;;;;;;42.13;17.48;;;;;;;;;;6190958;23;20263;-89
2022/01/07 15:18:26;;;;;;;29.43;16.63;;;;;;;;;;6218202;23;20000;-90
2022/01/07 15:20:52;;;;;;;35.03;15.73;;;;;;;;;;6190952;23;20258;-90
2022/01/07 15:23:18;;;;;;;37.95;16.38;;;;;;;;;;6217337;23;20075;-90
2022/01/07 15:25:43;;;;;;;34.75;14.25;;;;;;;;;;6190440;23;20693;-90
2022/01/07 15:28:08;;;;;;;40.72;17.02;;;;;;;;;;6190574;23;20739;-90
2022/01/07 15:30:35;;;;;;;34.47;14.98;;;;;;;;;;6218276;23;19997;-90
2022/01/07 15:33:00;;;;;;;34.05;16.10;;;;;;;;;;6191006;23;20000;-89
2022/01/07 15:35:25;;;;;;;35.70;16.60;;;;;;;;;;6190793;23;20478;-90
2022/01/07 15:37:50;;;;;;;34.33;17.00;;;;;;;;;;6190892;23;20031;-90
2022/01/07 15:40:16;;;;;;;42.55;16.60;;;;;;;;;;6217324;23;20024;-90
2022/01/07 15:42:42;;;;;;;35.50;14.75;;;;;;;;;;6217012;23;20008;-90
2022/01/07 15:45:08;;;;;;;36.40;16.70;;;;;;;;;;6190348;23;20397;-90
2022/01/07 15:47:34;;;;;;;37.03;14.70;;;;;;;;;;6190999;23;19997;-90
2022/01/07 15:49:59;;;;;;;30.65;14.77;;;;;;;;;;6190400;23;20043;-90
2022/01/07 15:52:25;;;;;;;33.10;15.03;;;;;;;;;;6217258;23;20001;-89
2022/01/07 15:54:53;;;;;;;31.38;13.63;;;;;;;;;;6190517;23;20242;-90
2022/01/07 15:57:18;;;;;;;25.80;13.70;;;;;;;;;;6217136;23;20656;-90
2022/01/07 15:59:43;;;;;;;33.25;14.50;;;;;;;;;;6190963;23;20000;-90
2022/01/07 16:02:09;;;;;;;27.67;13.20;;;;;;;;;;6216797;23;20000;-90
2022/01/07 16:04:34;;;;;;;30.95;14.48;;;;;;;;;;6216648;23;20224;-90
2022/01/07 16:06:59;;;;;;;33.97;15.33;;;;;;;;;;6190331;23;20135;-90
2022/01/07 16:09:24;;;;;;;34.65;15.35;;;;;;;;;;6216753;23;20227;-90
2022/01/07 16:11:49;;;;;;;29.23;14.57;;;;;;;;;;6217204;23;20357;-90
2022/01/07 16:14:15;;;;;;;37.85;15.85;;;;;;;;;;6190097;23;20239;-90
2022/01/07 16:16:41;;;;;;;33.53;15.57;;;;;;;;;;6216730;23;20100;-90
2022/01/07 16:19:06;;;;;;;29.95;15.30;;;;;;;;;;6216747;23;19997;-90
2022/01/07 16:21:31;;;;;;;31.77;15.90;;;;;;;;;;6216813;23;20536;-90
2022/01/07 16:23:57;;;;;;;32.23;15.87;;;;;;;;;;6189992;23;19989;-90
2022/01/07 16:26:22;;;;;;;24.67;14.20;;;;;;;;;;6216877;23;20687;-89
2022/01/07 16:28:47;;;;;;;29.75;15.07;;;;;;;;;;6216687;23;20220;-90
2022/01/07 16:31:13;;;;;;;30.20;15.68;;;;;;;;;;6190072;23;20047;-90
2022/01/07 16:33:39;;;;;;;40.00;17.10;;;;;;;;;;6216686;23;19996;-90
2022/01/07 16:36:04;;;;;;;29.48;15.40;;;;;;;;;;6190147;23;20000;-90
2022/01/07 16:38:30;;;;;;;29.77;15.85;;;;;;;;;;6189618;23;20054;-90
2022/01/07 16:40:55;;;;;;;36.63;16.67;;;;;;;;;;6189966;23;20071;-90
2022/01/07 16:43:21;;;;;;;32.20;17.55;;;;;;;;;;6189468;23;20100;-90
2022/01/07 16:45:46;;;;;;;35.80;15.45;;;;;;;;;;6216507;23;19993;-90
2022/01/07 16:48:12;;;;;;;28.63;14.63;;;;;;;;;;6189629;23;20005;-90
2022/01/07 16:50:37;;;;;;;42.67;15.73;;;;;;;;;;6190008;23;20429;-90
2022/01/07 16:53:03;;;;;;;37.55;15.93;;;;;;;;;;6190034;23;20000;-90
2022/01/07 16:55:28;;;;;;;34.42;15.13;;;;;;;;;;6216459;23;20001;-90
2022/01/07 16:57:54;;;;;;;34.72;15.18;;;;;;;;;;6187768;23;20023;-90
2022/01/07 17:00:19;;;;;;;32.78;15.50;;;;;;;;;;6213126;23;20047;-90
2022/01/07 17:02:45;;;;;;;30.90;15.82;;;;;;;;;;6185857;23;20000;-90
2022/01/07 17:05:10;;;;;;;32.40;16.05;;;;;;;;;;6213261;23;19996;-90
2022/01/07 17:07:35;;;;;;;42.13;17.67;;;;;;;;;;6186931;23;20032;-90
2022/01/07 17:10:02;;;;;;;35.83;15.75;;;;;;;;;;6185948;23;19997;-90
2022/01/07 17:12:28;;;;;;;28.30;15.75;;;;;;;;;;6213377;23;20008;-90
2022/01/07 17:14:53;;;;;;;33.85;16.20;;;;;;;;;;6213202;23;19996;-90
2022/01/07 17:17:18;;;;;;;34.03;15.27;;;;;;;;;;6213485;23;20019;-89
2022/01/07 17:19:43;;;;;;;30.13;15.30;;;;;;;;;;6212903;23;20032;-90
2022/01/07 17:22:09;;;;;;;28.15;14.80;;;;;;;;;;6186556;23;20395;-90
2022/01/07 17:24:34;;;;;;;35.65;15.35;;;;;;;;;;6187740;23;20001;-90
2022/01/07 17:26:59;;;;;;;36.53;14.45;;;;;;;;;;6214537;23;20001;-90
2022/01/07 17:29:24;;;;;;;35.20;12.73;;;;;;;;;;6215010;23;20004;-90
2022/01/07 17:31:49;;;;;;;31.15;14.00;;;;;;;;;;6188852;23;20004;-90
2022/01/07 17:34:15;;;;;;;20.45;9.27;;;;;;;;;;6216112;23;20079;-90
2022/01/07 17:36:40;;;;;;;25.70;8.48;;;;;;;;;;6188008;23;20009;-90
2022/01/07 17:39:06;;;;;;;22.00;8.70;;;;;;;;;;6213013;23;20001;-90
2022/01/07 17:41:31;;;;;;;24.35;9.50;;;;;;;;;;6186259;23;20021;-90
2022/01/07 17:43:57;;;;;;;16.35;7.97;;;;;;;;;;6187236;23;20000;-90
2022/01/07 17:46:22;;;;;;;16.35;5.22;;;;;;;;;;6186528;23;20058;-90
2022/01/07 17:48:48;;;;;;;18.33;6.50;;;;;;;;;;6212850;23;20421;-90
2022/01/07 17:51:13;;;;;;;12.15;4.22;;;;;;;;;;6188236;23;20333;-90
2022/01/07 17:53:38;;;;;;;11.70;3.90;;;;;;;;;;6188407;23;20008;-90
2022/01/07 17:56:04;;;;;;;13.57;4.68;;;;;;;;;;6214699;23;20000;-90
2022/01/07 17:58:29;;;;;;;15.93;4.82;;;;;;;;;;6214942;23;20011;-90
2022/01/07 18:00:54;;;;;;;10.90;4.25;;;;;;;;;;6189538;23;20128;-90
2022/01/07 18:03:19;;;;;;;14.88;5.72;;;;;;;;;;6217223;23;20017;-90
2022/01/07 18:05:45;;;;;;;20.83;7.10;;;;;;;;;;6216559;23;20413;-90
2022/01/07 18:08:10;;;;;;;21.40;8.10;;;;;;;;;;6187475;23;20051;-89
2022/01/07 18:10:35;;;;;;;18.45;7.78;;;;;;;;;;6215254;23;20001;-89
2022/01/07 18:13:03;;;;;;;18.13;8.35;;;;;;;;;;6215290;23;20368;-90
2022/01/07 18:15:28;;;;;;;24.67;11.00;;;;;;;;;;6215617;23;20467;-90
2022/01/07 18:17:54;;;;;;;30.70;11.90;;;;;;;;;;6215842;23;20046;-90
2022/01/07 18:20:19;;;;;;;32.53;12.00;;;;;;;;;;6188168;23;20004;-90
2022/01/07 18:22:46;;;;;;;27.77;12.68;;;;;;;;;;6187599;23;20008;-90
2022/01/07 18:25:13;;;;;;;27.20;9.57;;;;;;;;;;6215242;23;20004;-89
2022/01/07 18:27:38;;;;;;;17.15;7.05;;;;;;;;;;6216510;23;20111;-90
2022/01/07 18:30:04;;;;;;;16.33;5.65;;;;;;;;;;6188923;23;20032;-89
2022/01/07 18:32:29;;;;;;;9.65;2.78;;;;;;;;;;6214589;23;20473;-90
2022/01/07 18:34:54;;;;;;;8.27;2.00;;;;;;;;;;6187388;23;20487;-89
2022/01/07 18:37:20;;;;;;;6.70;1.98;;;;;;;;;;6214041;23;20291;-89
2022/01/07 18:39:46;;;;;;;9.15;2.63;;;;;;;;;;6214317;23;20005;-89
2022/01/07 18:42:11;;;;;;;8.35;2.20;;;;;;;;;;6214171;23;20097;-90
2022/01/07 18:44:36;;;;;;;6.63;2.00;;;;;;;;;;6187795;23;20007;-90
2022/01/07 18:47:02;;;;;;;8.18;1.90;;;;;;;;;;6187768;23;20318;-89
2022/01/07 18:49:28;;;;;;;10.52;2.38;;;;;;;;;;6214754;23;19993;-90
2022/01/07 18:51:53;;;;;;;9.35;2.42;;;;;;;;;;6187502;23;20010;-90
2022/01/07 18:54:18;;;;;;;7.93;2.20;;;;;;;;;;6187392;23;20004;-90
2022/01/07 18:56:45;;;;;;;7.53;2.30;;;;;;;;;;6214009;23;20455;-90
2022/01/07 18:59:12;;;;;;;7.88;2.85;;;;;;;;;;6187512;23;20004;-89
2022/01/07 19:01:37;;;;;;;12.13;3.70;;;;;;;;;;6186768;23;20001;-90
2022/01/07 19:04:02;;;;;;;10.18;3.95;;;;;;;;;;6187763;23;20083;-90
2022/01/07 19:06:29;;;;;;;7.07;3.72;;;;;;;;;;6214114;23;20004;-90
2022/01/07 19:08:54;;;;;;;12.00;4.60;;;;;;;;;;6214576;23;19996;-90
2022/01/07 19:11:19;;;;;;;13.73;5.53;;;;;;;;;;6187512;23;20011;-90
2022/01/07 19:13:45;;;;;;;18.67;3.97;;;;;;;;;;6214151;23;19997;-90
2022/01/07 19:16:10;;;;;;;13.70;4.32;;;;;;;;;;6187345;23;20004;-90
2022/01/07 19:18:36;;;;;;;6.03;3.38;;;;;;;;;;6188117;23;20019;-90
2022/01/07 19:21:02;;;;;;;12.15;5.40;;;;;;;;;;6213962;23;20011;-90
2022/01/07 19:23:28;;;;;;;8.98;3.90;;;;;;;;;;6187340;23;20091;-90
2022/01/07 19:25:53;;;;;;;10.13;3.72;;;;;;;;;;6186854;23;20034;-91
2022/01/07 19:28:18;;;;;;;9.32;4.15;;;;;;;;;;6213530;23;20015;-90
2022/01/07 19:30:44;;;;;;;6.28;3.85;;;;;;;;;;6214822;23;19992;-89
2022/01/07 19:33:10;;;;;;;7.13;4.63;;;;;;;;;;6189341;23;19996;-90
2022/01/07 19:35:35;;;;;;;10.45;5.38;;;;;;;;;;6215249;23;20507;-90
2022/01/07 19:38:00;;;;;;;8.48;5.07;;;;;;;;;;6190301;23;20009;-90
2022/01/07 19:40:25;;;;;;;11.80;6.18;;;;;;;;;;6190791;23;20430;-90
2022/01/07 19:42:51;;;;;;;10.70;3.97;;;;;;;;;;6216786;23;20043;-90
2022/01/07 19:45:16;;;;;;;8.25;4.07;;;;;;;;;;6190674;23;20007;-90
2022/01/07 19:47:42;;;;;;;11.18;4.47;;;;;;;;;;6190278;23;20003;-90
2022/01/07 19:50:07;;;;;;;13.18;4.50;;;;;;;;;;6190548;23;19996;-90
2022/01/07 19:52:34;;;;;;;8.38;3.85;;;;;;;;;;6190634;23;19996;-90
2022/01/07 19:54:59;;;;;;;7.50;4.50;;;;;;;;;;6190439;23;20024;-90
2022/01/07 19:57:25;;;;;;;18.35;6.13;;;;;;;;;;6188987;23;20478;-90
2022/01/07 19:59:50;;;;;;;12.80;6.57;;;;;;;;;;6213672;23;20063;-90
2022/01/07 20:02:15;;;;;;;14.37;7.60;;;;;;;;;;6214181;23;20220;-90
2022/01/07 20:04:40;;;;;;;17.42;6.63;;;;;;;;;;6186756;23;20231;-90
2022/01/07 20:07:06;;;;;;;10.07;6.10;;;;;;;;;;6186594;23;20007;-90
2022/01/07 20:09:33;;;;;;;9.90;4.60;;;;;;;;;;6186997;23;20000;-89
2022/01/07 20:11:58;;;;;;;12.52;5.15;;;;;;;;;;6187268;23;20005;-90
2022/01/07 20:14:23;;;;;;;19.27;7.13;;;;;;;;;;6186626;23;20007;-90
2022/01/07 20:16:48;;;;;;;10.87;4.27;;;;;;;;;;6186724;23;20616;-90
2022/01/07 20:19:13;;;;;;;11.40;4.22;;;;;;;;;;6186356;23;20224;-90
2022/01/07 20:21:38;;;;;;;10.03;5.60;;;;;;;;;;6213218;23;20095;-90
2022/01/07 20:24:04;;;;;;;12.93;5.22;;;;;;;;;;6214520;23;20231;-90
2022/01/07 20:26:29;;;;;;;14.35;6.97;;;;;;;;;;6186271;23;19996;-90
2022/01/07 20:28:54;;;;;;;15.18;5.60;;;;;;;;;;6187172;23;20032;-90
2022/01/07 20:31:20;;;;;;;15.68;6.13;;;;;;;;;;6214037;23;20008;-90
2022/01/07 20:33:45;;;;;;;14.80;7.72;;;;;;;;;;6186588;23;20084;-90
2022/01/07 20:36:11;;;;;;;15.90;6.25;;;;;;;;;;6186546;23;20008;-90
2022/01/07 20:38:36;;;;;;;18.45;7.50;;;;;;;;;;6186765;23;20298;-90
2022/01/07 20:41:01;;;;;;;22.20;6.90;;;;;;;;;;6186559;23;20391;-90
2022/01/07 20:43:26;;;;;;;16.30;5.57;;;;;;;;;;6185771;23;20380;-90
2022/01/07 20:45:51;;;;;;;15.45;6.00;;;;;;;;;;6186453;23;20005;-90
2022/01/07 20:48:17;;;;;;;14.40;6.30;;;;;;;;;;6212771;23;19996;-90
2022/01/07 20:50:42;;;;;;;19.85;5.60;;;;;;;;;;6186288;23;20322;-90
2022/01/07 20:53:08;;;;;;;16.35;5.22;;;;;;;;;;6212870;23;20035;-90
2022/01/07 20:55:33;;;;;;;13.75;4.88;;;;;;;;;;6212970;23;20482;-90
2022/01/07 20:57:58;;;;;;;9.95;4.75;;;;;;;;;;6186271;23;20004;-90
2022/01/07 21:00:23;;;;;;;18.67;6.07;;;;;;;;;;6186354;23;20065;-90
2022/01/07 21:02:49;;;;;;;12.55;4.68;;;;;;;;;;6186078;23;20390;-90
2022/01/07 21:05:14;;;;;;;18.70;4.00;;;;;;;;;;6213054;23;20031;-90
2022/01/07 21:07:45;;;;;;;12.05;3.20;;;;;;;;;;6185984;23;20027;-90
2022/01/07 21:10:10;;;;;;;12.75;3.35;;;;;;;;;;6212765;23;20370;-90
